^^
Saratoga-Weather Station Historical Data
Daily Summary for April 1, 2020 Units:  Metric    English   Both
Daily Weekly Monthly Yearly Custom
  High: Low: Average:
Temperature: 12.8 °C 8.1 °C 9.8 °C
Dew Point: 9.9 °C 6.7 °C 8.1 °C
Humidity: 94% 78% 89%
Wind Speed: 22.7km/h 0km/h 3.7km/h
Wind Gust: 24.1km/h - -
Wind- - SSW
Pressure: 1003.4 hPa 1002.0 hPa -
Precipitation: 7.9 mm    
Historical Graphs
 
 
Tabular Data for April 1, 2020
Time Temperature Dew Point Pressure Wind Wind Speed Wind Gust Humidity Rainfall Rate (Hourly) solar
00:01 9.6 °C 7.2 °C 1003.0 hPa ESE 4.7 km/h 4.8 km/h 85% 0.0 mm 0 W/m2
00:06 9.4 °C 7 °C 1003.0 hPa West 4.7 km/h 4.8 km/h 85% 0.0 mm 0 W/m2
00:11 9.3 °C 7.1 °C 1003.4 hPa NNE 6.4 km/h 6.4 km/h 86% 0.0 mm 0 W/m2
00:17 9.2 °C 7 °C 1003.4 hPa NNW 4.7 km/h 12.9 km/h 86% 0.0 mm 0 W/m2
00:22 9.2 °C 7.1 °C 1003.4 hPa East 3.2 km/h 4.8 km/h 87% 0.0 mm 0 W/m2
00:27 9.2 °C 7.1 °C 1003.4 hPa NW 1.4 km/h 4.8 km/h 87% 0.0 mm 0 W/m2
00:32 9.2 °C 7.1 °C 1003.4 hPa SE 3.2 km/h 9.7 km/h 87% 0.0 mm 0 W/m2
00:37 9.2 °C 7.3 °C 1003.4 hPa North 3.2 km/h 6.4 km/h 88% 0.0 mm 0 W/m2
00:42 9.1 °C 7.2 °C 1003.4 hPa East 6.4 km/h 9.7 km/h 88% 0.0 mm 0 W/m2
00:47 9.1 °C 7.2 °C 1003.4 hPa Calm   4.8 km/h 88% 0.0 mm 0 W/m2
00:52 9.1 °C 7.2 °C 1003.4 hPa ESE 6.4 km/h 6.4 km/h 88% 0.0 mm 0 W/m2
00:57 9 °C 7.1 °C 1003.4 hPa West 1.4 km/h 8 km/h 88% 0.0 mm 0 W/m2
01:02 9 °C 7.1 °C 1003.4 hPa West 1.4 km/h 4.8 km/h 88% 0.0 mm 0 W/m2
01:07 9 °C 7.1 °C 1003.4 hPa NE 7.9 km/h 8 km/h 88% 0.0 mm 0 W/m2
01:12 9 °C 7.3 °C 1003.4 hPa WNW 3.2 km/h 8 km/h 89% 0.0 mm 0 W/m2
01:17 9 °C 7.3 °C 1003.0 hPa WNW 1.4 km/h 4.8 km/h 89% 0.0 mm 0 W/m2
01:22 9 °C 7.3 °C 1003.0 hPa Calm   1.6 km/h 89% 0.0 mm 0 W/m2
01:27 9 °C 7.3 °C 1003.0 hPa ENE 3.2 km/h 4.8 km/h 89% 0.0 mm 0 W/m2
01:32 8.9 °C 7.2 °C 1003.0 hPa NE 4.7 km/h 6.4 km/h 89% 0.0 mm 0 W/m2
01:37 8.9 °C 7.2 °C 1003.0 hPa West 3.2 km/h 4.8 km/h 89% 0.0 mm 0 W/m2
01:42 8.9 °C 7.2 °C 1003.0 hPa NNE 1.4 km/h 6.4 km/h 89% 0.0 mm 0 W/m2
01:47 8.8 °C 7.1 °C 1003.0 hPa NNW 1.4 km/h 3.2 km/h 89% 0.0 mm 0 W/m2
01:52 8.8 °C 7.1 °C 1003.4 hPa WNW 6.4 km/h 6.4 km/h 89% 0.0 mm 0 W/m2
01:57 8.8 °C 7.1 °C 1003.4 hPa NW 3.2 km/h 4.8 km/h 89% 0.0 mm 0 W/m2
02:02 8.8 °C 7.1 °C 1003.0 hPa ENE 1.4 km/h 3.2 km/h 89% 0.0 mm 0 W/m2
02:07 8.8 °C 7.1 °C 1003.0 hPa NNE 1.4 km/h 1.6 km/h 89% 0.0 mm 0 W/m2
02:12 8.8 °C 7.2 °C 1003.0 hPa NNW 1.4 km/h 1.6 km/h 90% 0.0 mm 0 W/m2
02:17 8.8 °C 7.2 °C 1003.0 hPa South 3.2 km/h 6.4 km/h 90% 0.0 mm 0 W/m2
02:22 8.8 °C 7.2 °C 1003.0 hPa NE 4.7 km/h 4.8 km/h 90% 0.0 mm 0 W/m2
02:27 8.8 °C 7.2 °C 1003.0 hPa WNW 1.4 km/h 4.8 km/h 90% 0.0 mm 0 W/m2
02:32 8.8 °C 7.2 °C 1003.0 hPa SE 1.4 km/h 3.2 km/h 90% 0.0 mm 0 W/m2
02:37 8.8 °C 7.2 °C 1003.0 hPa SSE 3.2 km/h 8 km/h 90% 0.0 mm 0 W/m2
02:42 8.8 °C 7.2 °C 1003.0 hPa Calm   3.2 km/h 90% 0.0 mm 0 W/m2
02:47 8.7 °C 7.2 °C 1002.7 hPa NNE 3.2 km/h 3.2 km/h 90% 0.0 mm 0 W/m2
02:52 8.8 °C 7.2 °C 1003.0 hPa NNE 1.4 km/h 8 km/h 90% 0.0 mm 0 W/m2
02:57 8.8 °C 7.4 °C 1002.7 hPa NE 1.4 km/h 4.8 km/h 91% 0.0 mm 0 W/m2
03:02 8.9 °C 7.5 °C 1002.7 hPa NE 3.2 km/h 8 km/h 91% 0.2 mm 0 W/m2
03:07 8.9 °C 7.5 °C 1002.7 hPa ENE 4.7 km/h 4.8 km/h 91% 0.2 mm 0 W/m2
03:12 9.1 °C 7.7 °C 1002.7 hPa NE 3.2 km/h 8 km/h 91% 0.2 mm 0 W/m2
03:17 9.1 °C 7.7 °C 1002.7 hPa NNW 3.2 km/h 6.4 km/h 91% 0.2 mm 0 W/m2
03:22 9.2 °C 7.8 °C 1002.7 hPa Calm   8 km/h 91% 0.2 mm 0 W/m2
03:27 9.2 °C 7.8 °C 1002.7 hPa WNW 3.2 km/h 3.2 km/h 91% 0.2 mm 0 W/m2
03:32 9.3 °C 7.9 °C 1002.7 hPa NW 3.2 km/h 11.3 km/h 91% 0.5 mm 0 W/m2
03:37 9.3 °C 7.9 °C 1002.7 hPa NNW 3.2 km/h 8 km/h 91% 0.5 mm 0 W/m2
03:42 9.3 °C 7.9 °C 1002.7 hPa North 3.2 km/h 12.9 km/h 91% 0.5 mm 0 W/m2
03:47 9.3 °C 7.9 °C 1002.7 hPa SSW 3.2 km/h 3.2 km/h 91% 0.8 mm 0 W/m2
03:52 9.3 °C 7.9 °C 1002.7 hPa Calm   3.2 km/h 91% 1.3 mm 0 W/m2
03:57 9.3 °C 8.1 °C 1002.7 hPa NNW 3.2 km/h 4.8 km/h 92% 1.5 mm 0 W/m2
04:02 9.3 °C 8.1 °C 1002.7 hPa NNW 4.7 km/h 8 km/h 92% 1.3 mm 0 W/m2
04:07 9.3 °C 8.1 °C 1002.7 hPa NNE 3.2 km/h 4.8 km/h 92% 1.3 mm 0 W/m2
04:12 9.3 °C 8.1 °C 1002.7 hPa WNW 1.4 km/h 11.3 km/h 92% 1.3 mm 0 W/m2
04:17 9.3 °C 8.1 °C 1002.7 hPa Calm   4.8 km/h 92% 1.3 mm 0 W/m2
04:22 9.3 °C 7.9 °C 1002.7 hPa NE 4.7 km/h 12.9 km/h 91% 1.3 mm 0 W/m2
04:27 9.3 °C 7.9 °C 1003.0 hPa North 3.2 km/h 6.4 km/h 91% 1.3 mm 0 W/m2
04:32 9.3 °C 7.9 °C 1003.0 hPa WNW 1.4 km/h 8 km/h 91% 1.0 mm 0 W/m2
04:37 9.3 °C 7.9 °C 1003.0 hPa NNW 3.2 km/h 4.8 km/h 91% 1.0 mm 0 W/m2
04:43 9.3 °C 7.9 °C 1002.7 hPa Calm   4.8 km/h 91% 0.8 mm 0 W/m2
04:48 9.3 °C 7.9 °C 1002.7 hPa WNW 4.7 km/h 14.5 km/h 91% 0.5 mm 0 W/m2
04:53 9.3 °C 7.9 °C 1002.7 hPa NW 3.2 km/h 8 km/h 91% 0.2 mm 0 W/m2
04:58 9.3 °C 7.9 °C 1002.7 hPa NNE 4.7 km/h 17.7 km/h 91% 0.0 mm 0 W/m2
05:03 9.4 °C 8 °C 1002.7 hPa SW 1.4 km/h 8 km/h 91% 0.0 mm 0 W/m2
05:08 9.3 °C 7.9 °C 1002.7 hPa NNE 3.2 km/h 17.7 km/h 91% 0.0 mm 0 W/m2
05:13 9.3 °C 7.9 °C 1002.7 hPa Calm   3.2 km/h 91% 0.0 mm 0 W/m2
05:18 9.3 °C 7.9 °C 1002.7 hPa WSW 3.2 km/h 3.2 km/h 91% 0.0 mm 0 W/m2
05:23 9.3 °C 7.9 °C 1002.7 hPa NNE 6.4 km/h 6.4 km/h 91% 0.2 mm 0 W/m2
05:28 9.3 °C 7.9 °C 1002.7 hPa NE 3.2 km/h 4.8 km/h 91% 0.2 mm 0 W/m2
05:33 9.3 °C 7.9 °C 1002.4 hPa NNW 1.4 km/h 3.2 km/h 91% 0.2 mm 0 W/m2
05:38 9.2 °C 7.8 °C 1002.7 hPa NNE 3.2 km/h 3.2 km/h 91% 0.2 mm 0 W/m2
05:43 9.2 °C 8 °C 1002.4 hPa SSW 4.7 km/h 4.8 km/h 92% 0.2 mm 0 W/m2
05:48 9.2 °C 8 °C 1002.7 hPa North 3.2 km/h 6.4 km/h 92% 0.2 mm 0 W/m2
05:53 9.2 °C 8 °C 1002.7 hPa ENE 1.4 km/h 1.6 km/h 92% 0.5 mm 0 W/m2
05:58 9.2 °C 8 °C 1002.7 hPa Calm   6.4 km/h 92% 0.5 mm 0 W/m2
06:03 9.2 °C 8 °C 1002.7 hPa NW 1.4 km/h 6.4 km/h 92% 0.5 mm 0 W/m2
06:08 9.2 °C 8 °C 1002.4 hPa North 1.4 km/h 3.2 km/h 92% 0.5 mm 0 W/m2
06:13 9.1 °C 7.9 °C 1002.4 hPa NNE 3.2 km/h 3.2 km/h 92% 0.5 mm 0 W/m2
06:18 9.1 °C 7.9 °C 1002.4 hPa NE 4.7 km/h 4.8 km/h 92% 0.5 mm 0 W/m2
06:23 9.1 °C 7.9 °C 1002.4 hPa East 1.4 km/h 3.2 km/h 92% 0.5 mm 0 W/m2
06:28 9.1 °C 7.9 °C 1002.7 hPa NW 1.4 km/h 3.2 km/h 92% 0.5 mm 0 W/m2
06:33 9.1 °C 7.9 °C 1002.7 hPa WSW 6.4 km/h 20.9 km/h 92% 1.0 mm 0 W/m2
06:38 9.1 °C 7.9 °C 1002.7 hPa NW 1.4 km/h 3.2 km/h 92% 1.0 mm 5 W/m2
06:43 9.1 °C 7.9 °C 1002.7 hPa NW 1.4 km/h 11.3 km/h 92% 1.0 mm 0 W/m2
06:48 9.1 °C 7.9 °C 1002.7 hPa SE 1.4 km/h 4.8 km/h 92% 1.3 mm 5 W/m2
06:53 9 °C 7.8 °C 1002.7 hPa WNW 1.4 km/h 6.4 km/h 92% 1.3 mm 5 W/m2
06:58 9 °C 7.8 °C 1002.4 hPa NW 1.4 km/h 3.2 km/h 92% 1.5 mm 5 W/m2
07:03 8.9 °C 7.7 °C 1002.4 hPa Calm   3.2 km/h 92% 1.8 mm 7 W/m2
07:08 8.9 °C 7.8 °C 1002.4 hPa Calm   1.6 km/h 93% 2.0 mm 5 W/m2
07:13 8.9 °C 7.8 °C 1002.4 hPa NNE 1.4 km/h 1.6 km/h 93% 2.0 mm 9 W/m2
07:18 8.8 °C 7.7 °C 1002.7 hPa Calm   3.2 km/h 93% 1.8 mm 21 W/m2
07:23 8.8 °C 7.7 °C 1002.7 hPa NNE 1.4 km/h 8 km/h 93% 1.8 mm 12 W/m2
07:28 8.8 °C 7.7 °C 1002.7 hPa North 3.2 km/h 3.2 km/h 93% 1.8 mm 28 W/m2
07:33 8.9 °C 7.8 °C 1002.7 hPa NNE 1.4 km/h 3.2 km/h 93% 1.5 mm 19 W/m2
07:38 8.9 °C 7.8 °C 1002.7 hPa Calm   1.6 km/h 93% 1.5 mm 21 W/m2
07:43 9 °C 8.1 °C 1003.0 hPa WNW 3.2 km/h 8 km/h 94% 1.5 mm 32 W/m2
07:48 9 °C 7.9 °C 1003.0 hPa WNW 1.4 km/h 9.7 km/h 93% 1.3 mm 12 W/m2
07:53 8.6 °C 7.4 °C 1003.0 hPa WNW 13 km/h 12.9 km/h 92% 1.3 mm 7 W/m2
07:58 8.3 °C 6.9 °C 1003.0 hPa West 1.4 km/h 11.3 km/h 91% 0.8 mm 12 W/m2
08:03 8.1 °C 6.7 °C 1003.0 hPa West 6.4 km/h 12.9 km/h 91% 0.5 mm 21 W/m2
08:08 8.1 °C 6.9 °C 1003.0 hPa WNW 3.2 km/h 3.2 km/h 92% 0.5 mm 32 W/m2
08:13 8.1 °C 6.9 °C 1003.0 hPa Calm   4.8 km/h 92% 0.5 mm 67 W/m2
08:18 8.2 °C 7.1 °C 1003.0 hPa WNW 3.2 km/h 4.8 km/h 93% 0.5 mm 118 W/m2
08:24 8.3 °C 7.2 °C 1003.0 hPa Calm   3.2 km/h 93% 0.5 mm 174 W/m2
08:29 8.6 °C 7.5 °C 1003.0 hPa Calm   3.2 km/h 93% 0.2 mm 63 W/m2
08:34 8.7 °C 7.8 °C 1003.0 hPa NW 1.4 km/h 1.6 km/h 94% 0.2 mm 179 W/m2
08:39 8.9 °C 8 °C 1003.0 hPa NW 1.4 km/h 3.2 km/h 94% 0.2 mm 132 W/m2
08:44 9.1 °C 8 °C 1003.0 hPa Calm   3.2 km/h 93% 0.2 mm 84 W/m2
08:49 9.2 °C 8.3 °C 1003.0 hPa East 1.4 km/h 6.4 km/h 94% 0.2 mm 137 W/m2
08:54 9.3 °C 8.4 °C 1003.0 hPa WNW 3.2 km/h 6.4 km/h 94% 0.0 mm 158 W/m2
08:59 9.6 °C 8.7 °C 1002.7 hPa NW 3.2 km/h 4.8 km/h 94% 0.0 mm 156 W/m2
09:04 9.7 °C 8.6 °C 1002.7 hPa NNE 4.7 km/h 6.4 km/h 93% 0.0 mm 146 W/m2
09:09 9.8 °C 8.7 °C 1002.7 hPa Calm   4.8 km/h 93% 0.0 mm 142 W/m2
09:14 9.9 °C 8.8 °C 1002.7 hPa NNE 1.4 km/h 12.9 km/h 93% 0.0 mm 90 W/m2
09:19 10 °C 8.8 °C 1002.7 hPa North 3.2 km/h 6.4 km/h 92% 0.5 mm 111 W/m2
09:24 10.1 °C 9 °C 1002.7 hPa East 1.4 km/h 3.2 km/h 93% 0.5 mm 130 W/m2
09:29 10.1 °C 8.9 °C 1002.7 hPa NNE 1.4 km/h 3.2 km/h 92% 0.5 mm 42 W/m2
09:34 9.9 °C 8.7 °C 1002.7 hPa East 1.4 km/h 17.7 km/h 92% 0.5 mm 47 W/m2
09:39 9.9 °C 8.7 °C 1002.7 hPa West 3.2 km/h 4.8 km/h 92% 1.0 mm 93 W/m2
09:44 9.8 °C 8.6 °C 1002.4 hPa SSW 1.4 km/h 17.7 km/h 92% 1.3 mm 132 W/m2
09:49 9.9 °C 8.7 °C 1002.4 hPa ESE 4.7 km/h 4.8 km/h 92% 1.3 mm 225 W/m2
09:54 10 °C 8.9 °C 1002.4 hPa ESE 7.9 km/h 8 km/h 93% 1.3 mm 95 W/m2
09:59 10 °C 8.8 °C 1002.4 hPa Calm   3.2 km/h 92% 1.3 mm 63 W/m2
10:09 9.9 °C 8.7 °C 1002.0 hPa NNW 1.4 km/h 4.8 km/h 92% 1.5 mm 72 W/m2
10:14 9.8 °C 8.7 °C 1002.0 hPa NW 4.7 km/h 8 km/h 93% 1.5 mm 54 W/m2
10:19 9.8 °C 8.7 °C 1002.4 hPa NNW 1.4 km/h 4.8 km/h 93% 1.3 mm 33 W/m2
10:24 9.8 °C 8.7 °C 1002.7 hPa NW 6.4 km/h 14.5 km/h 93% 1.5 mm 14 W/m2
10:29 9.8 °C 8.7 °C 1003.0 hPa WSW 7.9 km/h 19.3 km/h 93% 2.3 mm 19 W/m2
10:34 9.2 °C 7.8 °C 1002.7 hPa WSW 4.7 km/h 14.5 km/h 91% 2.8 mm 46 W/m2
10:39 8.9 °C 7.7 °C 1002.7 hPa WSW 3.2 km/h 6.4 km/h 92% 2.3 mm 63 W/m2
10:44 8.9 °C 7.7 °C 1002.7 hPa North 4.7 km/h 4.8 km/h 92% 2.3 mm 77 W/m2
10:49 9 °C 7.9 °C 1002.7 hPa WSW 4.7 km/h 6.4 km/h 93% 2.5 mm 144 W/m2
10:54 9.1 °C 8 °C 1002.4 hPa WNW 4.7 km/h 12.9 km/h 93% 2.5 mm 227 W/m2
10:59 9.2 °C 8.1 °C 1002.7 hPa WNW 4.7 km/h 9.7 km/h 93% 2.5 mm 167 W/m2
11:05 9.2 °C 8.1 °C 1002.7 hPa WNW 11.1 km/h 12.9 km/h 93% 2.3 mm 190 W/m2
11:10 9.3 °C 8.1 °C 1002.7 hPa SW 6.4 km/h 12.9 km/h 92% 2.3 mm 251 W/m2
11:15 9.4 °C 8.2 °C 1002.7 hPa West 4.7 km/h 8 km/h 92% 2.3 mm 253 W/m2
11:20 9.6 °C 8.4 °C 1002.7 hPa WSW 3.2 km/h 4.8 km/h 92% 2.3 mm 371 W/m2
11:25 9.8 °C 8.6 °C 1002.7 hPa West 4.7 km/h 11.3 km/h 92% 1.8 mm 334 W/m2
11:30 9.9 °C 8.5 °C 1002.7 hPa WSW 6.4 km/h 11.3 km/h 91% 0.5 mm 229 W/m2
11:35 9.8 °C 8.2 °C 1002.7 hPa WNW 7.9 km/h 22.5 km/h 90% 0.2 mm 241 W/m2
11:40 9.8 °C 8.1 °C 1002.7 hPa SW 3.2 km/h 11.3 km/h 89% 0.2 mm 264 W/m2
11:45 9.9 °C 8.2 °C 1002.7 hPa NW 6.4 km/h 22.5 km/h 89% 0.2 mm 227 W/m2
11:50 10 °C 8.3 °C 1002.4 hPa SW 7.9 km/h 11.3 km/h 89% 0.0 mm 719 W/m2
11:55 10.3 °C 8.6 °C 1002.7 hPa WSW 7.9 km/h 14.5 km/h 89% 0.0 mm 719 W/m2
12:00 10.8 °C 9.2 °C 1002.7 hPa NW 4.7 km/h 12.9 km/h 90% 0.0 mm 719 W/m2
12:05 11.1 °C 9 °C 1002.7 hPa WNW 6.4 km/h 9.7 km/h 87% 0.0 mm 438 W/m2
12:10 11.3 °C 9.2 °C 1002.7 hPa NNW 6.4 km/h 14.5 km/h 87% 0.0 mm 346 W/m2
12:15 11.4 °C 9 °C 1002.7 hPa WNW 3.2 km/h 9.7 km/h 85% 0.0 mm 299 W/m2
12:20 11.6 °C 9.3 °C 1002.7 hPa SW 9.7 km/h 16.1 km/h 86% 0.0 mm 350 W/m2
12:25 11.7 °C 9.1 °C 1002.7 hPa WNW 4.7 km/h 9.7 km/h 84% 0.0 mm 397 W/m2
12:30 11.7 °C 8.9 °C 1002.7 hPa WNW 3.2 km/h 9.7 km/h 83% 0.0 mm 332 W/m2
12:35 11.9 °C 8.9 °C 1002.7 hPa NNW 1.4 km/h 6.4 km/h 82% 0.0 mm 610 W/m2
12:41 12 °C 9 °C 1002.7 hPa NW 7.9 km/h 11.3 km/h 82% 0.0 mm 359 W/m2
12:49 12.1 °C 9.1 °C 1002.7 hPa West 4.7 km/h 4.8 km/h 82% 0.0 mm 471 W/m2
12:51 12.1 °C 9.1 °C 1002.7 hPa NW 3.2 km/h 4.8 km/h 82% 0.0 mm 366 W/m2
12:59 12.2 °C 9.2 °C 1002.4 hPa NNW 6.4 km/h 17.7 km/h 82% 0.0 mm 206 W/m2
13:01 12.2 °C 9.2 °C 1002.4 hPa NW 3.2 km/h 4.8 km/h 82% 0.0 mm 163 W/m2
13:13 12.1 °C 9.1 °C 1002.4 hPa NNW 9.7 km/h 9.7 km/h 82% 0.0 mm 272 W/m2
13:15 11.9 °C 8.9 °C 1002.4 hPa ENE 3.2 km/h 6.4 km/h 82% 0.0 mm 229 W/m2
13:20 11.9 °C 9.1 °C 1002.4 hPa NNW 3.2 km/h 6.4 km/h 83% 0.0 mm 306 W/m2
13:27 12 °C 9.2 °C 1002.4 hPa NW 3.2 km/h 8 km/h 83% 0.0 mm 362 W/m2
13:30 11.9 °C 8.7 °C 1002.4 hPa NNE 3.2 km/h 4.8 km/h 81% 0.0 mm 329 W/m2
13:35 11.9 °C 9.1 °C 1002.4 hPa Calm   3.2 km/h 83% 0.0 mm 362 W/m2
13:40 12.1 °C 9.1 °C 1002.4 hPa NW 9.7 km/h 16.1 km/h 82% 0.0 mm 485 W/m2
13:45 12.1 °C 9.1 °C 1002.4 hPa NE 1.4 km/h 6.4 km/h 82% 0.0 mm 434 W/m2
13:50 12.2 °C 9 °C 1002.4 hPa SW 7.9 km/h 9.7 km/h 81% 0.0 mm 506 W/m2
13:55 12.3 °C 9.3 °C 1002.4 hPa NW 13 km/h 24.1 km/h 82% 0.0 mm 417 W/m2
14:00 12.4 °C 9.2 °C 1002.4 hPa SE 6.4 km/h 9.7 km/h 81% 0.0 mm 408 W/m2
14:05 12.4 °C 9.2 °C 1002.4 hPa NW 7.9 km/h 19.3 km/h 81% 0.0 mm 677 W/m2
14:10 12.6 °C 9.4 °C 1002.4 hPa WNW 9.7 km/h 20.9 km/h 81% 0.0 mm 603 W/m2
14:16 12.8 °C 9.2 °C 1002.4 hPa West 4.7 km/h 8 km/h 79% 0.0 mm 536 W/m2
14:21 12.8 °C 9.1 °C 1002.4 hPa NNW 1.4 km/h 24.1 km/h 78% 0.0 mm 501 W/m2
14:26 12.8 °C 9.4 °C 1002.7 hPa WNW 22.7 km/h 24.1 km/h 80% 0.0 mm 200 W/m2
14:37 12.2 °C 9 °C 1002.4 hPa WNW 1.4 km/h 6.4 km/h 81% 0.0 mm 278 W/m2
14:42 12.2 °C 9.2 °C 1002.4 hPa SSE 1.4 km/h 16.1 km/h 82% 0.0 mm 703 W/m2
14:47 12.3 °C 9.7 °C 1002.4 hPa WNW 11.1 km/h 11.3 km/h 84% 0.0 mm 828 W/m2
14:52 12.4 °C 9.8 °C 1002.4 hPa NW 4.7 km/h 8 km/h 84% 0.0 mm 527 W/m2
14:57 12.4 °C 9.6 °C 1002.4 hPa WNW 11.1 km/h 11.3 km/h 83% 0.0 mm 279 W/m2
15:02 12.2 °C 9.4 °C 1002.4 hPa SW 7.9 km/h 16.1 km/h 83% 0.0 mm 334 W/m2
15:07 12.4 °C 9.9 °C 1002.7 hPa WNW 6.4 km/h 14.5 km/h 85% 0.0 mm 870 W/m2
15:12 12.6 °C 9.4 °C 1002.4 hPa WNW 16.3 km/h 16.1 km/h 81% 0.0 mm 777 W/m2
Juneau County Weather
Compliments of Weather Underground - 2 mb